createdAt,value
2022-12-23T00:01:28.050Z,97376.88
2022-12-23T00:03:58.850Z,97373.41
2022-12-23T00:06:27.751Z,97373.63
2022-12-23T00:08:58.827Z,97370.09
2022-12-23T00:11:29.882Z,97380.19
2022-12-23T00:14:21.067Z,97387.00
2022-12-23T00:16:51.579Z,97380.41
2022-12-23T00:19:20.024Z,97384.31
2022-12-23T00:21:49.329Z,97388.72
2022-12-23T00:24:17.606Z,97376.06
2022-12-23T00:26:47.746Z,97376.38
2022-12-23T00:29:18.754Z,97388.91
2022-12-23T00:31:47.047Z,97372.66
2022-12-23T00:34:15.341Z,97376.97
2022-12-23T00:36:43.870Z,97396.94
2022-12-23T00:39:30.806Z,97393.13
2022-12-23T00:42:17.976Z,97397.31
2022-12-23T00:44:46.208Z,97405.66
2022-12-23T00:47:36.358Z,97403.88
2022-12-23T00:50:03.836Z,97408.69
2022-12-23T00:52:32.399Z,97408.50
2022-12-23T00:55:00.803Z,97411.13
2022-12-23T00:57:30.953Z,97403.81
2022-12-23T00:59:59.289Z,97396.28
2022-12-23T01:02:45.727Z,97392.75
2022-12-23T01:05:37.173Z,97391.91
2022-12-23T01:08:07.341Z,97391.16
2022-12-23T01:10:35.949Z,97401.38
2022-12-23T01:13:06.341Z,97397.84
2022-12-23T01:15:34.953Z,97392.97
2022-12-23T01:18:03.611Z,97393.34
2022-12-23T01:20:31.784Z,97390.56
2022-12-23T01:23:00.332Z,97402.03
2022-12-23T01:25:28.513Z,97390.22
2022-12-23T01:27:57.106Z,97396.56
2022-12-23T01:30:26.833Z,97396.50
2022-12-23T01:32:55.347Z,97403.88
2022-12-23T01:35:23.630Z,97406.19
2022-12-23T01:37:52.081Z,97398.53
2022-12-23T01:40:20.442Z,97403.81
2022-12-23T01:42:47.921Z,97398.94
2022-12-23T01:45:21.001Z,97393.88
2022-12-23T01:47:54.081Z,97388.19
2022-12-23T01:50:25.553Z,97403.41
2022-12-23T01:53:04.574Z,97404.56
2022-12-23T01:55:39.127Z,97414.28
2022-12-23T01:58:11.211Z,97415.81
2022-12-23T02:00:57.923Z,97410.59
2022-12-23T02:03:46.320Z,97419.03
2022-12-23T02:06:36.033Z,97417.66
2022-12-23T02:09:18.376Z,97420.31
2022-12-23T02:11:59.361Z,97434.94
2022-12-23T02:14:57.965Z,97432.47
2022-12-23T02:17:29.846Z,97428.25
2022-12-23T02:20:17.729Z,97423.47
2022-12-23T02:23:02.090Z,97436.44
2022-12-23T02:25:49.957Z,97423.78
2022-12-23T02:28:33.651Z,97428.16
2022-12-23T02:31:10.658Z,97424.09
2022-12-23T02:33:48.921Z,97411.88
2022-12-23T02:36:30.152Z,97420.00
2022-12-23T02:39:01.391Z,97416.06
2022-12-23T02:41:34.870Z,97421.97
2022-12-23T02:44:07.140Z,97419.31
2022-12-23T02:46:39.814Z,97421.22
2022-12-23T02:49:11.408Z,97417.13
2022-12-23T02:51:45.719Z,97428.03
2022-12-23T02:54:26.291Z,97421.94
2022-12-23T02:56:55.587Z,97425.84
2022-12-23T02:59:26.000Z,97421.16
2022-12-23T03:01:56.491Z,97418.78
2022-12-23T03:04:24.895Z,97414.78
2022-12-23T03:06:55.040Z,97417.06
2022-12-23T03:09:26.883Z,97418.66
2022-12-23T03:12:03.057Z,97423.53
2022-12-23T03:14:55.167Z,97411.94
2022-12-23T03:17:40.984Z,97409.22
2022-12-23T03:20:15.302Z,97414.03
2022-12-23T03:22:51.057Z,97403.38
2022-12-23T03:25:21.708Z,97411.03
2022-12-23T03:27:54.462Z,97402.81
2022-12-23T03:30:24.279Z,97411.59
2022-12-23T03:32:56.859Z,97413.72
2022-12-23T03:35:31.810Z,97406.41
2022-12-23T03:38:02.115Z,97420.78
2022-12-23T03:40:35.383Z,97413.13
2022-12-23T03:43:06.523Z,97407.75
2022-12-23T03:45:39.772Z,97408.69
2022-12-23T03:48:15.187Z,97419.59
2022-12-23T03:50:44.558Z,97414.00
2022-12-23T03:53:16.619Z,97415.38
2022-12-23T03:55:48.417Z,97413.03
2022-12-23T03:58:25.516Z,97410.25
2022-12-23T04:00:59.718Z,97411.13
2022-12-23T04:03:32.806Z,97400.00
2022-12-23T04:06:03.482Z,97409.31
2022-12-23T04:08:34.890Z,97416.31
2022-12-23T04:11:03.922Z,97410.97
2022-12-23T04:13:33.194Z,97409.84
2022-12-23T04:16:02.097Z,97407.75
2022-12-23T04:18:32.108Z,97404.34
2022-12-23T04:21:00.340Z,97399.66
2022-12-23T04:23:29.023Z,97392.03
2022-12-23T04:25:57.312Z,97386.72
2022-12-23T04:28:25.896Z,97377.47
2022-12-23T04:30:54.158Z,97380.19
2022-12-23T04:33:22.772Z,97379.09
2022-12-23T04:35:52.374Z,97371.38
2022-12-23T04:38:20.879Z,97371.75
2022-12-23T04:40:49.339Z,97372.84
2022-12-23T04:43:17.862Z,97373.09
2022-12-23T04:45:46.268Z,97376.94
2022-12-23T04:48:14.821Z,97370.66
2022-12-23T04:50:43.061Z,97373.66
2022-12-23T04:53:12.925Z,97364.59
2022-12-23T04:55:41.254Z,97371.25
2022-12-23T04:58:10.065Z,97370.41
2022-12-23T05:00:40.047Z,97359.81
2022-12-23T05:03:08.920Z,97368.22
2022-12-23T05:05:37.345Z,97372.03
2022-12-23T05:08:07.102Z,97366.53
2022-12-23T05:10:36.863Z,97375.13
2022-12-23T05:13:05.374Z,97368.75
2022-12-23T05:15:34.132Z,97367.66
2022-12-23T05:18:02.730Z,97364.94
2022-12-23T05:20:31.036Z,97359.19
2022-12-23T05:22:59.620Z,97371.59
2022-12-23T05:25:28.257Z,97376.75
2022-12-23T05:27:58.300Z,97379.28
2022-12-23T05:30:26.695Z,97382.41
2022-12-23T05:32:55.331Z,97381.91
2022-12-23T05:35:23.604Z,97374.38
2022-12-23T05:37:52.197Z,97367.59
2022-12-23T05:40:23.705Z,97376.75
2022-12-23T05:42:54.317Z,97365.34
2022-12-23T05:45:24.110Z,97373.78
2022-12-23T05:47:52.671Z,97373.44
2022-12-23T05:50:20.900Z,97374.50
2022-12-23T05:52:49.412Z,97366.97
2022-12-23T05:55:18.014Z,97372.34
2022-12-23T05:57:46.497Z,97372.13
2022-12-23T06:00:17.099Z,97366.91
2022-12-23T06:02:53.486Z,97367.00
2022-12-23T06:05:22.920Z,97367.72
2022-12-23T06:07:51.513Z,97362.47
2022-12-23T06:10:21.609Z,97354.84
2022-12-23T06:12:50.353Z,97354.25
2022-12-23T06:15:19.995Z,97349.63
2022-12-23T06:17:50.637Z,97357.56
2022-12-23T06:20:20.982Z,97350.66
2022-12-23T06:22:49.910Z,97350.06
2022-12-23T06:25:18.208Z,97354.19
2022-12-23T06:27:46.716Z,97361.75
2022-12-23T06:30:15.597Z,97357.25
2022-12-23T06:32:44.760Z,97355.84
2022-12-23T06:35:14.334Z,97363.06
2022-12-23T06:37:42.973Z,97356.38
2022-12-23T06:40:12.856Z,97353.94
2022-12-23T06:42:41.609Z,97355.47
2022-12-23T06:45:11.122Z,97358.25
2022-12-23T06:47:39.723Z,97361.03
2022-12-23T06:50:09.070Z,97360.69
2022-12-23T06:52:39.225Z,97355.31
2022-12-23T06:55:08.216Z,97368.75
2022-12-23T06:57:36.852Z,97368.63
2022-12-23T07:00:05.698Z,97358.97
2022-12-23T07:02:34.518Z,97366.84
2022-12-23T07:05:03.117Z,97361.34
2022-12-23T07:07:33.086Z,97360.66
2022-12-23T07:10:02.740Z,97368.53
2022-12-23T07:12:31.438Z,97361.94
2022-12-23T07:15:00.104Z,97360.78
2022-12-23T07:17:29.177Z,97368.25
2022-12-23T07:19:57.384Z,97365.75
2022-12-23T07:22:26.130Z,97369.13
2022-12-23T07:24:54.405Z,97361.38
2022-12-23T07:27:24.439Z,97365.00
2022-12-23T07:29:52.875Z,97369.75
2022-12-23T07:32:21.404Z,97377.53
2022-12-23T07:34:49.968Z,97382.31
2022-12-23T07:37:18.613Z,97375.63
2022-12-23T07:39:47.088Z,97375.56
2022-12-23T07:42:43.276Z,97386.75
2022-12-23T07:45:06.555Z,97377.38
2022-12-23T07:47:35.165Z,97381.88
2022-12-23T07:50:03.709Z,97377.69
2022-12-23T07:52:32.282Z,97383.19
2022-12-23T07:55:00.742Z,97382.00
2022-12-23T07:57:29.482Z,97375.75
2022-12-23T07:59:58.139Z,97370.44
2022-12-23T08:02:28.372Z,97372.56
2022-12-23T08:04:57.734Z,97367.56
2022-12-23T08:07:26.416Z,97364.94
2022-12-23T08:09:55.245Z,97364.34
2022-12-23T08:12:23.991Z,97361.69
2022-12-23T08:14:52.862Z,97364.41
2022-12-23T08:17:22.199Z,97364.44
2022-12-23T08:19:52.024Z,97362.50
2022-12-23T08:22:20.607Z,97359.22
2022-12-23T08:24:48.964Z,97352.44
2022-12-23T08:27:17.563Z,97342.53
2022-12-23T08:29:45.946Z,97346.53
2022-12-23T08:32:14.374Z,97341.97
2022-12-23T08:34:42.747Z,97347.72
2022-12-23T08:37:12.661Z,97351.03
2022-12-23T08:39:41.091Z,97344.88
2022-12-23T08:42:10.269Z,97338.59
2022-12-23T08:44:38.559Z,97354.34
2022-12-23T08:47:07.165Z,97352.75
2022-12-23T08:49:36.563Z,97342.41
2022-12-23T08:52:05.182Z,97344.22
2022-12-23T08:54:35.089Z,97338.56
2022-12-23T08:57:03.660Z,97332.94
2022-12-23T08:59:31.977Z,97328.66
2022-12-23T09:02:02.320Z,97336.06
2022-12-23T09:04:30.669Z,97313.63
2022-12-23T09:06:59.347Z,97317.06
2022-12-23T09:09:27.952Z,97309.88
2022-12-23T09:11:57.980Z,97315.91
2022-12-23T09:14:26.343Z,97318.03
2022-12-23T09:16:54.879Z,97312.78
2022-12-23T09:19:23.265Z,97292.34
2022-12-23T09:21:51.855Z,97299.09
2022-12-23T09:24:20.158Z,97289.00
2022-12-23T09:26:48.749Z,97298.50
2022-12-23T09:29:18.420Z,97288.91
2022-12-23T09:31:47.126Z,97287.84
2022-12-23T09:34:15.464Z,97271.84
2022-12-23T09:36:44.152Z,97277.91
2022-12-23T09:39:12.702Z,97276.44
2022-12-23T09:41:56.187Z,97277.47
2022-12-23T09:44:41.821Z,97270.59
2022-12-23T09:47:13.189Z,97272.56
2022-12-23T09:49:47.808Z,97267.56
2022-12-23T09:52:21.232Z,97269.59
2022-12-23T09:54:52.963Z,97272.81
2022-12-23T09:57:24.137Z,97257.13
2022-12-23T10:00:02.872Z,97246.69
2022-12-23T10:02:44.556Z,97252.63
2022-12-23T10:05:22.035Z,97248.41
2022-12-23T10:07:53.200Z,97241.94
2022-12-23T10:10:29.450Z,97243.78
2022-12-23T10:12:59.824Z,97235.00
2022-12-23T10:15:31.695Z,97227.84
2022-12-23T10:18:04.046Z,97224.31
2022-12-23T10:20:39.030Z,97236.25
2022-12-23T10:23:12.413Z,97242.34
2022-12-23T10:25:44.825Z,97240.22
2022-12-23T10:28:13.673Z,97238.88
2022-12-23T10:31:23.810Z,97230.94
2022-12-23T10:33:38.898Z,97240.69
2022-12-23T10:36:11.983Z,97242.31
2022-12-23T10:38:49.358Z,97239.84
2022-12-23T10:41:27.133Z,97235.28
2022-12-23T10:44:05.670Z,97233.66
2022-12-23T10:46:40.714Z,97245.06
2022-12-23T10:49:16.921Z,97241.94
2022-12-23T10:51:47.900Z,97249.16
2022-12-23T10:54:19.290Z,97242.69
2022-12-23T10:56:47.992Z,97224.16
2022-12-23T10:59:17.998Z,97245.56
2022-12-23T11:01:48.768Z,97244.47
2022-12-23T11:04:19.561Z,97241.53
2022-12-23T11:07:10.656Z,97230.13
2022-12-23T11:09:42.319Z,97233.47
2022-12-23T11:12:12.106Z,97229.09
2022-12-23T11:14:42.867Z,97236.19
2022-12-23T11:17:23.353Z,97243.06
2022-12-23T11:20:09.243Z,97236.50
2022-12-23T11:22:38.522Z,97238.44
2022-12-23T11:25:28.005Z,97245.25
2022-12-23T11:27:58.541Z,97250.22
2022-12-23T11:30:28.288Z,97253.25
2022-12-23T11:32:58.072Z,97245.03
2022-12-23T11:35:29.012Z,97249.25
2022-12-23T11:37:57.751Z,97231.25
2022-12-23T11:40:28.654Z,97244.34
2022-12-23T11:43:02.437Z,97243.03
2022-12-23T11:45:32.198Z,97235.16
2022-12-23T11:48:01.933Z,97223.53
2022-12-23T11:50:34.010Z,97239.56
2022-12-23T11:53:06.095Z,97233.28
2022-12-23T11:55:34.703Z,97235.25
2022-12-23T11:58:03.999Z,97241.91
2022-12-23T12:00:38.520Z,97222.84
2022-12-23T12:03:08.832Z,97230.53
2022-12-23T12:05:40.666Z,97232.00
2022-12-23T12:08:11.937Z,97232.81
2022-12-23T12:10:41.867Z,97211.97
2022-12-23T12:13:23.857Z,97231.19
2022-12-23T12:15:59.873Z,97236.31
2022-12-23T12:18:30.040Z,97238.84
2022-12-23T12:21:01.679Z,97236.50
2022-12-23T12:23:38.893Z,97245.09
2022-12-23T12:26:10.576Z,97248.94
2022-12-23T12:28:40.615Z,97235.50
2022-12-23T12:31:17.793Z,97240.19
2022-12-23T12:33:50.885Z,97235.94
2022-12-23T12:36:26.459Z,97234.63
2022-12-23T12:38:56.158Z,97242.66
2022-12-23T12:41:29.331Z,97242.78
2022-12-23T12:44:03.413Z,97242.06
2022-12-23T12:46:36.015Z,97246.38
2022-12-23T12:49:12.404Z,97249.47
2022-12-23T12:51:45.017Z,97231.91
2022-12-23T12:54:19.900Z,97233.97
2022-12-23T12:56:51.809Z,97251.66
2022-12-23T12:59:22.801Z,97251.00
2022-12-23T13:02:03.374Z,97259.44
2022-12-23T13:05:08.177Z,97258.03
2022-12-23T13:07:45.247Z,97261.72
2022-12-23T13:10:17.982Z,97264.69
2022-12-23T13:12:57.831Z,97262.31
2022-12-23T13:15:31.724Z,97270.91
2022-12-23T13:18:14.885Z,97263.69
2022-12-23T13:20:49.591Z,97269.28
2022-12-23T13:23:45.816Z,97255.34
2022-12-23T13:26:16.653Z,97266.13
2022-12-23T13:28:52.271Z,97265.03
2022-12-23T13:31:29.464Z,97281.84
2022-12-23T13:34:02.924Z,97275.78
2022-12-23T13:36:42.073Z,97286.28
2022-12-23T13:39:24.074Z,97290.88
2022-12-23T13:41:52.858Z,97290.09
2022-12-23T13:44:22.191Z,97299.13
2022-12-23T13:46:58.630Z,97296.25
2022-12-23T13:49:34.431Z,97297.88
2022-12-23T13:52:08.417Z,97296.72
2022-12-23T13:54:46.763Z,97282.41
2022-12-23T13:57:25.327Z,97287.41
2022-12-23T14:00:06.074Z,97303.34
2022-12-23T14:03:01.026Z,97285.72
2022-12-23T14:05:45.534Z,97288.88
2022-12-23T14:08:28.439Z,97286.38
2022-12-23T14:11:00.359Z,97288.22
2022-12-23T14:13:29.929Z,97286.19
2022-12-23T14:16:27.053Z,97289.50
2022-12-23T14:19:24.011Z,97295.59
2022-12-23T14:22:05.251Z,97304.94
2022-12-23T14:25:15.379Z,97307.84
2022-12-23T14:27:54.070Z,97303.88
2022-12-23T14:30:26.202Z,97302.75
2022-12-23T14:32:59.973Z,97303.97
2022-12-23T14:35:52.839Z,97312.19
2022-12-23T14:38:30.882Z,97312.13
2022-12-23T14:41:40.652Z,97302.59
2022-12-23T14:44:21.285Z,97300.72
2022-12-23T14:46:59.098Z,97307.91
2022-12-23T14:49:43.130Z,97305.47
2022-12-23T14:52:54.186Z,97306.47
2022-12-23T14:55:49.329Z,97308.28
2022-12-23T14:58:54.897Z,97303.97
2022-12-23T15:01:30.614Z,97306.94
2022-12-23T15:04:01.818Z,97317.84
2022-12-23T15:06:34.947Z,97313.69
2022-12-23T15:09:11.010Z,97308.22
2022-12-23T15:11:41.808Z,97311.97
2022-12-23T15:14:18.577Z,97305.91
2022-12-23T15:16:47.573Z,97302.13
2022-12-23T15:19:26.272Z,97316.94
2022-12-23T15:22:22.132Z,97324.41
2022-12-23T15:25:01.740Z,97321.75
2022-12-23T15:27:35.932Z,97323.34
2022-12-23T15:30:07.542Z,97317.47
2022-12-23T15:32:37.356Z,97324.03
2022-12-23T15:35:22.390Z,97318.22
2022-12-23T15:37:52.615Z,97315.94
2022-12-23T15:40:27.108Z,97329.38
2022-12-23T15:42:58.958Z,97328.19
2022-12-23T15:45:37.447Z,97324.31
2022-12-23T15:48:08.608Z,97326.41
2022-12-23T15:50:42.089Z,97311.63
2022-12-23T15:53:17.726Z,97316.13
2022-12-23T15:55:46.943Z,97313.81
2022-12-23T15:58:23.573Z,97315.47
2022-12-23T16:00:55.895Z,97323.38
2022-12-23T16:03:35.227Z,97322.44
2022-12-23T16:06:12.635Z,97325.28
2022-12-23T16:08:41.927Z,97309.41
2022-12-23T16:11:15.763Z,97322.72
2022-12-23T16:13:58.868Z,97313.09
2022-12-23T16:16:40.059Z,97306.41
2022-12-23T16:19:42.892Z,97321.59
2022-12-23T16:22:36.861Z,97312.19
2022-12-23T16:25:12.034Z,97312.06
2022-12-23T16:27:42.464Z,97302.94
2022-12-23T16:30:20.153Z,97312.06
2022-12-23T16:32:53.277Z,97314.00
2022-12-23T16:35:32.821Z,97302.88
2022-12-23T16:38:11.890Z,97293.38
2022-12-23T16:40:43.345Z,97296.72
2022-12-23T16:43:11.775Z,97299.41
2022-12-23T16:45:48.101Z,97304.06
2022-12-23T16:48:26.948Z,97295.78
2022-12-23T16:50:59.403Z,97290.63
2022-12-23T16:53:28.913Z,97287.81
2022-12-23T16:56:01.126Z,97283.63
2022-12-23T16:58:33.414Z,97284.69
2022-12-23T17:01:03.111Z,97293.09
2022-12-23T17:03:36.636Z,97301.16
2022-12-23T17:06:06.967Z,97291.88
2022-12-23T17:08:35.849Z,97297.34
2022-12-23T17:11:10.806Z,97293.91
2022-12-23T17:13:40.250Z,97300.19
2022-12-23T17:16:15.783Z,97299.34
2022-12-23T17:18:45.695Z,97297.59
2022-12-23T17:21:20.403Z,97295.78
2022-12-23T17:23:57.763Z,97289.72
2022-12-23T17:26:34.669Z,97302.84
2022-12-23T17:29:04.930Z,97303.97
2022-12-23T17:31:42.000Z,97305.53
2022-12-23T17:34:17.811Z,97309.34
2022-12-23T17:36:50.554Z,97317.88
2022-12-23T17:39:22.097Z,97318.56
2022-12-23T17:41:58.836Z,97314.38
2022-12-23T17:44:29.695Z,97322.00
2022-12-23T17:47:00.864Z,97312.91
2022-12-23T17:49:31.232Z,97326.13
2022-12-23T17:52:00.854Z,97322.03
2022-12-23T17:54:29.782Z,97318.56
2022-12-23T17:57:04.095Z,97322.41
2022-12-23T17:59:35.007Z,97333.53
2022-12-23T18:02:06.603Z,97318.66
2022-12-23T18:04:36.903Z,97320.66
2022-12-23T18:07:18.928Z,97323.84
2022-12-23T18:10:01.214Z,97330.00
2022-12-23T18:12:36.262Z,97325.13
2022-12-23T18:15:08.773Z,97327.16
2022-12-23T18:17:37.930Z,97329.66
2022-12-23T18:20:11.449Z,97333.72
2022-12-23T18:22:40.097Z,97314.53
2022-12-23T18:25:15.911Z,97334.03
2022-12-23T18:27:44.513Z,97332.22
2022-12-23T18:30:13.215Z,97329.50
2022-12-23T18:32:42.588Z,97336.75
2022-12-23T18:35:30.996Z,97337.81
2022-12-23T18:38:00.590Z,97330.72
2022-12-23T18:40:33.015Z,97335.97
2022-12-23T18:43:02.325Z,97330.50
2022-12-23T18:45:34.649Z,97328.78
2022-12-23T18:48:07.485Z,97332.84
2022-12-23T18:50:39.259Z,97331.00
2022-12-23T18:53:09.132Z,97328.16
2022-12-23T18:55:37.717Z,97326.78
2022-12-23T18:58:06.179Z,97333.72
2022-12-23T19:00:34.687Z,97329.00
2022-12-23T19:03:03.414Z,97333.63
2022-12-23T19:05:33.839Z,97331.81
2022-12-23T19:08:03.897Z,97331.81
2022-12-23T19:10:34.721Z,97340.09
2022-12-23T19:13:03.296Z,97336.75
2022-12-23T19:15:33.035Z,97326.03
2022-12-23T19:18:01.589Z,97334.97
2022-12-23T19:20:29.997Z,97327.28
2022-12-23T19:22:58.575Z,97335.72
2022-12-23T19:25:28.361Z,97333.13
2022-12-23T19:27:57.405Z,97321.13
2022-12-23T19:30:25.988Z,97333.75
2022-12-23T19:32:54.577Z,97330.19
2022-12-23T19:35:22.976Z,97322.03
2022-12-23T19:37:51.658Z,97320.50
2022-12-23T19:40:20.820Z,97324.34
2022-12-23T19:42:50.827Z,97321.41
2022-12-23T19:45:19.322Z,97320.88
2022-12-23T19:47:48.017Z,97324.94
2022-12-23T19:50:16.552Z,97324.41
2022-12-23T19:52:45.150Z,97334.63
2022-12-23T19:55:15.828Z,97334.94
2022-12-23T19:57:44.335Z,97332.31
2022-12-23T20:00:16.107Z,97334.25
2022-12-23T20:02:44.738Z,97338.09
2022-12-23T20:05:13.133Z,97336.06
2022-12-23T20:07:41.739Z,97324.22
2022-12-23T20:10:11.008Z,97313.28
2022-12-23T20:12:40.568Z,97310.44
2022-12-23T20:15:10.379Z,97298.41
2022-12-23T20:17:40.614Z,97291.94
2022-12-23T20:20:09.972Z,97280.09
2022-12-23T20:22:38.907Z,97275.03
2022-12-23T20:25:08.045Z,97277.16
2022-12-23T20:27:38.858Z,97282.03
2022-12-23T20:30:08.445Z,97279.47
2022-12-23T20:32:37.135Z,97266.94
2022-12-23T20:35:08.167Z,97261.75
2022-12-23T20:37:36.891Z,97258.69
2022-12-23T20:40:07.400Z,97255.69
2022-12-23T20:42:36.659Z,97257.28
2022-12-23T20:45:05.530Z,97263.94
2022-12-23T20:47:34.143Z,97260.50
2022-12-23T20:50:02.387Z,97264.69
2022-12-23T20:52:32.836Z,97266.84
2022-12-23T20:55:01.739Z,97262.53
2022-12-23T20:57:31.439Z,97265.88
2022-12-23T21:00:00.615Z,97259.75
2022-12-23T21:02:29.311Z,97259.09
2022-12-23T21:04:57.620Z,97252.81
2022-12-23T21:07:26.930Z,97253.94
2022-12-23T21:09:56.616Z,97248.00
2022-12-23T21:12:25.163Z,97246.44
2022-12-23T21:14:53.425Z,97242.97
2022-12-23T21:17:23.964Z,97248.50
2022-12-23T21:19:52.183Z,97251.25
2022-12-23T21:22:20.932Z,97250.22
2022-12-23T21:24:49.131Z,97239.41
2022-12-23T21:27:19.053Z,97252.53
2022-12-23T21:29:47.253Z,97241.50
2022-12-23T21:32:15.826Z,97243.03
2022-12-23T21:34:44.146Z,97242.13
2022-12-23T21:37:13.304Z,97254.97
2022-12-23T21:39:42.155Z,97248.81
2022-12-23T21:42:11.259Z,97247.09
2022-12-23T21:44:42.943Z,97248.38
2022-12-23T21:47:18.648Z,97235.25
2022-12-23T21:49:49.270Z,97234.22
2022-12-23T21:52:20.216Z,97233.63
2022-12-23T21:54:48.537Z,97240.78
2022-12-23T21:57:17.102Z,97237.75
2022-12-23T21:59:46.838Z,97229.78
2022-12-23T22:02:17.503Z,97240.72
2022-12-23T22:04:45.875Z,97226.72
2022-12-23T22:07:14.409Z,97244.94
2022-12-23T22:09:42.609Z,97234.38
2022-12-23T22:12:11.124Z,97232.47
2022-12-23T22:14:39.676Z,97237.81
2022-12-23T22:17:09.761Z,97231.69
2022-12-23T22:19:38.102Z,97235.09
2022-12-23T22:22:06.678Z,97223.94
2022-12-23T22:24:34.874Z,97225.25
2022-12-23T22:27:03.621Z,97222.66
2022-12-23T22:29:32.067Z,97220.44
2022-12-23T22:32:00.715Z,97226.13
2022-12-23T22:34:30.365Z,97218.59
2022-12-23T22:36:58.899Z,97223.31
2022-12-23T22:39:27.288Z,97224.13
2022-12-23T22:41:55.843Z,97228.22
2022-12-23T22:44:24.073Z,97216.84
2022-12-23T22:46:52.593Z,97216.22
2022-12-23T22:49:21.048Z,97213.91
2022-12-23T22:51:51.013Z,97215.50
2022-12-23T22:54:19.543Z,97213.81
2022-12-23T22:56:48.099Z,97211.66
2022-12-23T22:59:21.285Z,97212.19
2022-12-23T23:01:50.078Z,97211.84
2022-12-23T23:04:18.718Z,97208.72
2022-12-23T23:06:47.442Z,97208.53
2022-12-23T23:09:18.921Z,97213.41
2022-12-23T23:11:47.621Z,97216.50
2022-12-23T23:14:16.050Z,97217.03
2022-12-23T23:16:44.795Z,97220.66
2022-12-23T23:19:14.443Z,97226.50
2022-12-23T23:21:43.240Z,97209.59
2022-12-23T23:24:12.040Z,97198.47
2022-12-23T23:26:41.996Z,97195.25
2022-12-23T23:29:10.291Z,97195.31
2022-12-23T23:31:42.442Z,97197.81
2022-12-23T23:34:11.282Z,97184.56
2022-12-23T23:36:40.112Z,97179.94
2022-12-23T23:39:08.459Z,97172.94
2022-12-23T23:41:37.136Z,97175.31
2022-12-23T23:44:06.789Z,97176.63
2022-12-23T23:46:35.916Z,97182.34
2022-12-23T23:49:04.406Z,97158.09
2022-12-23T23:51:33.016Z,97152.06
2022-12-23T23:54:01.222Z,97155.75
2022-12-23T23:56:35.827Z,97154.47
2022-12-23T23:59:08.416Z,97145.97
